createdAt,value
2018-07-23T00:02:23.576Z,74.20
2018-07-23T00:04:52.266Z,74.70
2018-07-23T00:07:20.864Z,74.30
2018-07-23T00:09:49.705Z,74.20
2018-07-23T00:12:18.888Z,74.20
2018-07-23T00:14:47.543Z,74.10
2018-07-23T00:17:17.024Z,73.80
2018-07-23T00:19:45.531Z,73.90
2018-07-23T00:22:14.220Z,73.90
2018-07-23T00:24:43.442Z,73.90
2018-07-23T00:27:12.058Z,73.70
2018-07-23T00:29:40.856Z,73.40
2018-07-23T00:32:10.243Z,73.30
2018-07-23T00:34:39.390Z,73.80
2018-07-23T00:37:08.197Z,73.80
2018-07-23T00:39:36.981Z,74.00
2018-07-23T00:42:05.652Z,74.30
2018-07-23T00:44:34.597Z,74.40
2018-07-23T00:47:03.175Z,74.80
2018-07-23T00:49:31.697Z,74.80
2018-07-23T00:52:00.316Z,74.80
2018-07-23T00:54:29.209Z,74.60
2018-07-23T00:56:59.428Z,74.70
2018-07-23T00:59:28.419Z,74.60
2018-07-23T01:01:57.168Z,74.50
2018-07-23T01:04:26.003Z,74.50
2018-07-23T01:06:54.644Z,74.00
2018-07-23T01:09:23.524Z,73.90
2018-07-23T01:11:52.234Z,74.00
2018-07-23T01:14:20.808Z,74.10
2018-07-23T01:16:49.392Z,74.10
2018-07-23T01:19:18.125Z,74.10
2018-07-23T01:21:46.660Z,73.50
2018-07-23T01:24:15.186Z,73.00
2018-07-23T01:26:43.780Z,72.70
2018-07-23T01:29:12.270Z,72.60
2018-07-23T01:31:40.790Z,72.80
2018-07-23T01:34:10.036Z,73.10
2018-07-23T01:36:38.979Z,73.50
2018-07-23T01:39:08.955Z,73.50
2018-07-23T01:41:37.651Z,73.40
2018-07-23T01:44:06.630Z,73.40
2018-07-23T01:46:35.927Z,73.30
2018-07-23T01:49:05.687Z,73.20
2018-07-23T01:51:34.431Z,73.50
2018-07-23T01:54:03.931Z,73.50
2018-07-23T01:56:32.887Z,73.60
2018-07-23T01:59:02.793Z,73.60
2018-07-23T02:01:31.698Z,73.90
2018-07-23T02:04:01.461Z,74.70
2018-07-23T02:06:29.979Z,74.00
2018-07-23T02:08:58.595Z,74.10
2018-07-23T02:11:27.655Z,73.60
2018-07-23T02:13:56.356Z,73.60
2018-07-23T02:16:25.239Z,73.30
2018-07-23T02:18:54.008Z,73.40
2018-07-23T02:21:22.742Z,73.30
2018-07-23T02:23:51.280Z,73.30
2018-07-23T02:26:20.592Z,73.40
2018-07-23T02:28:49.113Z,73.50
2018-07-23T02:31:18.307Z,73.80
2018-07-23T02:33:46.910Z,73.90
2018-07-23T02:36:15.544Z,73.90
2018-07-23T02:38:44.437Z,73.60
2018-07-23T02:41:13.013Z,73.40
2018-07-23T02:43:41.810Z,73.30
2018-07-23T02:46:10.485Z,73.90
2018-07-23T02:48:39.240Z,73.50
2018-07-23T02:51:08.025Z,73.60
2018-07-23T02:53:36.898Z,73.10
2018-07-23T02:56:06.147Z,72.90
2018-07-23T02:58:35.108Z,72.80
2018-07-23T03:01:04.110Z,73.20
2018-07-23T03:03:32.655Z,73.00
2018-07-23T03:06:01.267Z,73.00
2018-07-23T03:08:30.199Z,72.80
2018-07-23T03:13:27.421Z,73.00
2018-07-23T03:15:55.987Z,72.90
2018-07-23T03:18:24.878Z,72.90
2018-07-23T03:20:53.543Z,72.90
2018-07-23T03:23:22.588Z,72.90
2018-07-23T03:25:51.103Z,72.80
2018-07-23T03:28:20.222Z,72.70
2018-07-23T03:30:48.837Z,72.80
2018-07-23T03:33:17.663Z,72.80
2018-07-23T03:35:46.195Z,72.90
2018-07-23T03:38:14.821Z,72.80
2018-07-23T03:40:43.480Z,73.20
2018-07-23T03:43:12.168Z,73.50
2018-07-23T03:45:40.839Z,73.50
2018-07-23T03:48:09.477Z,73.20
2018-07-23T03:50:38.006Z,73.30
2018-07-23T03:53:07.271Z,73.10
2018-07-23T03:55:36.127Z,73.20
2018-07-23T03:58:05.270Z,73.20
2018-07-23T04:00:34.011Z,73.20
2018-07-23T04:03:03.213Z,73.30
2018-07-23T04:05:31.846Z,73.10
2018-07-23T04:08:01.129Z,73.00
2018-07-23T04:12:58.138Z,72.80
2018-07-23T04:15:27.707Z,73.30
2018-07-23T04:18:03.615Z,73.60
2018-07-23T04:20:34.151Z,73.90
2018-07-23T04:23:03.449Z,74.10
2018-07-23T04:25:32.111Z,74.20
2018-07-23T04:28:01.340Z,74.00
2018-07-23T04:30:30.275Z,73.70
2018-07-23T04:32:58.903Z,73.40
2018-07-23T04:35:28.409Z,73.20
2018-07-23T04:37:57.675Z,72.80
2018-07-23T04:40:26.708Z,72.80
2018-07-23T04:42:56.295Z,72.80
2018-07-23T04:45:25.283Z,72.80
2018-07-23T04:47:54.142Z,73.40
2018-07-23T04:50:22.842Z,73.10
2018-07-23T04:52:51.646Z,72.90
2018-07-23T04:55:20.591Z,72.80
2018-07-23T04:57:49.174Z,73.30
2018-07-23T05:00:17.764Z,73.30
2018-07-23T05:02:46.310Z,73.30
2018-07-23T05:05:15.455Z,73.40
2018-07-23T05:07:44.182Z,73.40
2018-07-23T05:10:12.759Z,73.00
2018-07-23T05:12:41.548Z,73.10
2018-07-23T05:15:10.501Z,72.90
2018-07-23T05:17:40.072Z,72.70
2018-07-23T05:20:08.690Z,72.70
2018-07-23T05:25:06.615Z,72.50
2018-07-23T05:27:35.496Z,72.40
2018-07-23T05:30:04.255Z,72.50
2018-07-23T05:32:33.070Z,72.70
2018-07-23T05:35:01.902Z,72.80
2018-07-23T05:37:30.727Z,72.60
2018-07-23T05:39:59.435Z,72.90
2018-07-23T05:42:28.065Z,73.00
2018-07-23T05:44:56.632Z,73.40
2018-07-23T05:47:26.315Z,73.40
2018-07-23T05:49:54.926Z,73.00
2018-07-23T05:52:23.991Z,73.00
2018-07-23T05:54:52.540Z,72.90
2018-07-23T05:57:21.378Z,73.10
2018-07-23T05:59:50.214Z,73.10
2018-07-23T06:02:18.878Z,73.10
2018-07-23T06:04:48.619Z,72.90
2018-07-23T06:07:17.930Z,72.50
2018-07-23T06:09:46.694Z,72.20
2018-07-23T06:12:15.584Z,72.20
2018-07-23T06:14:44.555Z,72.20
2018-07-23T06:17:14.293Z,72.40
2018-07-23T06:19:43.198Z,72.60
2018-07-23T06:22:12.686Z,72.00
2018-07-23T06:24:42.668Z,72.10
2018-07-23T06:27:11.423Z,72.10
2018-07-23T06:29:40.269Z,72.10
2018-07-23T06:32:09.516Z,72.00
2018-07-23T06:34:39.410Z,72.00
2018-07-23T06:37:08.270Z,72.10
2018-07-23T06:39:37.981Z,72.40
2018-07-23T06:42:07.466Z,72.50
2018-07-23T06:44:37.677Z,72.40
2018-07-23T06:47:06.977Z,71.90
2018-07-23T06:49:37.830Z,71.50
2018-07-23T06:52:07.165Z,71.60
2018-07-23T06:54:36.631Z,72.30
2018-07-23T06:57:06.252Z,71.40
2018-07-23T06:59:35.454Z,71.50
2018-07-23T07:02:04.720Z,71.60
2018-07-23T07:04:33.815Z,71.50
2018-07-23T07:07:02.990Z,70.80
2018-07-23T07:09:32.477Z,70.40
2018-07-23T07:12:01.541Z,70.40
2018-07-23T07:14:30.461Z,71.00
2018-07-23T07:16:59.157Z,71.40
2018-07-23T07:19:28.711Z,71.40
2018-07-23T07:21:57.525Z,71.30
2018-07-23T07:24:26.604Z,71.50
2018-07-23T07:26:55.217Z,71.60
2018-07-23T07:29:23.978Z,71.50
2018-07-23T07:31:52.519Z,71.40
2018-07-23T07:34:21.169Z,71.40
2018-07-23T07:36:51.358Z,71.30
2018-07-23T07:39:20.420Z,71.10
2018-07-23T07:41:49.445Z,71.10
2018-07-23T07:44:18.241Z,71.10
2018-07-23T07:46:47.488Z,70.90
2018-07-23T07:49:17.070Z,70.70
2018-07-23T07:51:46.120Z,70.90
2018-07-23T07:54:14.843Z,71.10
2018-07-23T07:56:43.753Z,71.10
2018-07-23T07:59:12.586Z,70.80
2018-07-23T08:01:41.964Z,70.30
2018-07-23T08:04:11.020Z,70.10
2018-07-23T08:06:39.898Z,70.30
2018-07-23T08:09:10.138Z,70.60
2018-07-23T08:11:39.860Z,70.40
2018-07-23T08:14:10.312Z,69.80
2018-07-23T08:16:38.999Z,70.10
2018-07-23T08:19:08.853Z,70.50
2018-07-23T08:21:37.470Z,70.60
2018-07-23T08:24:07.647Z,70.60
2018-07-23T08:26:38.125Z,70.60
2018-07-23T08:29:07.774Z,70.30
2018-07-23T08:31:37.130Z,70.20
2018-07-23T08:34:07.163Z,69.50
2018-07-23T08:36:36.584Z,69.10
2018-07-23T08:39:08.802Z,69.20
2018-07-23T08:41:38.307Z,69.30
2018-07-23T08:44:08.215Z,69.30
2018-07-23T08:46:36.956Z,69.20
2018-07-23T08:51:34.617Z,69.40
2018-07-23T08:54:03.451Z,69.30
2018-07-23T08:56:33.862Z,68.70
2018-07-23T09:01:31.380Z,68.50
2018-07-23T09:04:00.124Z,68.20
2018-07-23T09:06:28.975Z,67.60
2018-07-23T09:08:57.543Z,67.80
2018-07-23T09:11:27.534Z,67.00
2018-07-23T09:13:56.660Z,66.50
2018-07-23T09:16:25.243Z,66.10
2018-07-23T09:18:54.516Z,66.00
2018-07-23T09:21:23.852Z,65.90
2018-07-23T09:23:52.751Z,65.60
2018-07-23T09:26:21.873Z,65.10
2018-07-23T09:28:50.675Z,64.80
2018-07-23T09:31:20.204Z,64.60
2018-07-23T09:33:49.084Z,64.20
2018-07-23T09:36:18.461Z,63.80
2018-07-23T09:38:48.131Z,63.00
2018-07-23T09:41:17.078Z,63.00
2018-07-23T09:43:47.198Z,62.80
2018-07-23T09:48:45.951Z,63.00
2018-07-23T09:51:14.696Z,63.10
2018-07-23T09:53:44.352Z,63.00
2018-07-23T09:56:13.491Z,62.20
2018-07-23T09:58:42.180Z,61.90
2018-07-23T10:01:13.280Z,61.90
2018-07-23T10:03:42.760Z,62.30
2018-07-23T10:06:12.340Z,61.90
2018-07-23T10:08:42.566Z,62.00
2018-07-23T10:11:12.466Z,62.30
2018-07-23T10:13:41.678Z,62.50
2018-07-23T10:16:10.944Z,61.70
2018-07-23T10:18:40.076Z,61.70
2018-07-23T10:21:09.893Z,62.20
2018-07-23T10:23:39.048Z,62.00
2018-07-23T10:26:07.905Z,61.10
2018-07-23T10:28:36.802Z,61.60
2018-07-23T10:31:05.783Z,61.40
2018-07-23T10:33:35.081Z,61.20
2018-07-23T10:36:04.191Z,61.20
2018-07-23T10:38:32.846Z,61.20
2018-07-23T10:41:01.843Z,61.10
2018-07-23T10:43:31.366Z,61.00
2018-07-23T10:46:00.048Z,60.40
2018-07-23T10:48:29.055Z,60.00
2018-07-23T10:50:57.934Z,58.70
2018-07-23T10:53:28.041Z,59.50
2018-07-23T10:55:56.749Z,58.90
2018-07-23T10:58:25.528Z,58.40
2018-07-23T11:00:55.780Z,57.90
2018-07-23T11:05:53.838Z,57.90
2018-07-23T11:08:23.786Z,58.00
2018-07-23T11:10:52.813Z,58.10
2018-07-23T11:13:22.382Z,58.40
2018-07-23T11:15:51.685Z,57.60
2018-07-23T11:18:20.542Z,58.00
2018-07-23T11:20:50.279Z,58.40
2018-07-23T11:23:19.612Z,58.30
2018-07-23T11:25:49.433Z,58.40
2018-07-23T11:28:18.379Z,57.80
2018-07-23T11:30:50.159Z,57.50
2018-07-23T11:33:19.102Z,57.50
2018-07-23T11:35:48.448Z,57.90
2018-07-23T11:38:19.770Z,57.60
2018-07-23T11:40:49.582Z,57.60
2018-07-23T11:43:19.555Z,57.20
2018-07-23T11:45:50.331Z,56.40
2018-07-23T11:48:19.817Z,57.10
2018-07-23T11:50:49.039Z,57.00
2018-07-23T11:53:20.691Z,56.60
2018-07-23T11:58:19.977Z,55.20
2018-07-23T12:00:48.865Z,55.60
2018-07-23T12:03:19.040Z,55.90
2018-07-23T12:05:48.968Z,57.20
2018-07-23T12:08:20.189Z,57.00
2018-07-23T12:10:50.552Z,57.10
2018-07-23T12:13:20.880Z,57.40
2018-07-23T12:15:50.669Z,57.50
2018-07-23T12:18:20.932Z,56.50
2018-07-23T12:20:49.985Z,57.00
2018-07-23T12:23:21.352Z,56.80
2018-07-23T12:25:51.048Z,57.10
2018-07-23T12:28:19.989Z,56.80
2018-07-23T12:30:49.133Z,57.10
2018-07-23T12:33:21.420Z,56.70
2018-07-23T12:35:50.494Z,57.20
2018-07-23T12:38:21.625Z,58.20
2018-07-23T12:40:51.776Z,58.60
2018-07-23T12:43:23.099Z,58.40
2018-07-23T12:45:53.006Z,58.70
2018-07-23T12:48:24.658Z,59.20
2018-07-23T12:50:54.244Z,58.50
2018-07-23T12:55:52.467Z,57.50
2018-07-23T12:58:22.392Z,57.70
2018-07-23T13:00:51.247Z,57.70
2018-07-23T13:03:22.496Z,57.60
2018-07-23T13:05:51.307Z,57.30
2018-07-23T13:08:20.652Z,57.80
2018-07-23T13:10:49.971Z,57.90
2018-07-23T13:13:19.586Z,57.30
2018-07-23T13:15:49.171Z,55.60
2018-07-23T13:18:18.427Z,54.80
2018-07-23T13:20:47.437Z,55.50
2018-07-23T13:23:16.476Z,55.40
2018-07-23T13:25:45.192Z,54.60
2018-07-23T13:28:14.400Z,53.00
2018-07-23T13:30:43.292Z,54.20
2018-07-23T13:33:13.409Z,53.80
2018-07-23T13:35:43.682Z,54.70
2018-07-23T13:38:12.500Z,54.10
2018-07-23T13:40:41.377Z,53.80
2018-07-23T13:43:10.735Z,53.80
2018-07-23T13:45:39.613Z,53.80
2018-07-23T13:48:08.423Z,54.90
2018-07-23T13:50:39.017Z,54.90
2018-07-23T13:53:08.334Z,54.70
2018-07-23T13:55:37.513Z,53.20
2018-07-23T13:58:06.778Z,52.90
2018-07-23T14:00:35.379Z,53.30
2018-07-23T14:03:04.125Z,53.10
2018-07-23T14:05:34.100Z,51.50
2018-07-23T14:08:03.378Z,52.10
2018-07-23T14:10:32.656Z,53.20
2018-07-23T14:13:02.348Z,53.60
2018-07-23T14:15:31.060Z,54.00
2018-07-23T14:17:59.953Z,53.30
2018-07-23T14:20:28.714Z,53.00
2018-07-23T14:22:58.120Z,52.50
2018-07-23T14:25:27.471Z,53.40
2018-07-23T14:27:57.027Z,53.10
2018-07-23T14:30:26.340Z,53.70
2018-07-23T14:32:55.148Z,53.60
2018-07-23T14:35:24.295Z,53.50
2018-07-23T14:37:53.737Z,54.30
2018-07-23T14:40:22.342Z,54.00
2018-07-23T14:42:51.138Z,54.90
2018-07-23T14:45:19.815Z,54.00
2018-07-23T14:47:48.424Z,54.00
2018-07-23T14:50:17.423Z,53.10
2018-07-23T14:52:46.406Z,52.40
2018-07-23T14:55:15.431Z,50.90
2018-07-23T14:57:46.117Z,50.60
2018-07-23T15:00:15.800Z,51.50
2018-07-23T15:02:45.034Z,52.40
2018-07-23T15:05:14.961Z,52.60
2018-07-23T15:07:43.557Z,52.30
2018-07-23T15:10:12.213Z,51.40
2018-07-23T15:12:41.636Z,51.60
2018-07-23T15:15:10.315Z,51.80
2018-07-23T15:17:38.907Z,51.00
2018-07-23T15:20:07.678Z,51.80
2018-07-23T15:22:36.564Z,51.50
2018-07-23T15:25:05.660Z,50.10
2018-07-23T15:27:34.847Z,50.90
2018-07-23T15:30:04.155Z,52.10
2018-07-23T15:32:33.210Z,51.50
2018-07-23T15:35:02.585Z,50.70
2018-07-23T15:37:31.660Z,48.90
2018-07-23T15:40:01.432Z,49.50
2018-07-23T15:42:30.443Z,50.10
2018-07-23T15:47:29.042Z,49.30
2018-07-23T15:49:57.883Z,49.40
2018-07-23T15:52:27.104Z,50.20
2018-07-23T15:54:56.027Z,51.20
2018-07-23T15:59:53.186Z,50.50
2018-07-23T16:02:23.010Z,50.30
2018-07-23T16:04:51.978Z,50.00
2018-07-23T16:07:20.769Z,50.30
2018-07-23T16:09:49.440Z,50.40
2018-07-23T16:12:18.496Z,49.50
2018-07-23T16:14:47.100Z,49.70
2018-07-23T16:17:16.470Z,49.50
2018-07-23T16:19:45.506Z,50.00
2018-07-23T16:22:15.248Z,49.60
2018-07-23T16:24:44.310Z,50.50
2018-07-23T16:27:13.237Z,49.90
2018-07-23T16:32:11.154Z,51.20
2018-07-23T16:34:40.758Z,51.00
2018-07-23T16:37:09.714Z,50.60
2018-07-23T16:39:38.437Z,51.10
2018-07-23T16:42:07.054Z,50.50
2018-07-23T16:44:35.629Z,51.00
2018-07-23T16:47:04.839Z,50.40
2018-07-23T16:49:33.915Z,50.90
2018-07-23T16:52:02.460Z,50.50
2018-07-23T16:54:31.469Z,50.50
2018-07-23T16:57:00.304Z,50.00
2018-07-23T16:59:28.976Z,49.80
2018-07-23T17:01:57.919Z,49.40
2018-07-23T17:06:55.048Z,51.50
2018-07-23T17:09:23.985Z,51.90
2018-07-23T17:14:22.327Z,50.90
2018-07-23T17:16:51.623Z,51.20
2018-07-23T17:19:21.239Z,49.10
2018-07-23T17:21:50.231Z,50.80
2018-07-23T17:24:19.216Z,51.60
2018-07-23T17:26:47.975Z,51.80
2018-07-23T17:29:16.954Z,51.50
2018-07-23T17:31:45.910Z,51.00
2018-07-23T17:34:14.946Z,48.70
2018-07-23T17:36:44.651Z,50.10
2018-07-23T17:39:13.846Z,49.80
2018-07-23T17:41:43.515Z,49.90
2018-07-23T17:44:12.591Z,50.50
2018-07-23T17:46:42.015Z,51.10
2018-07-23T17:49:10.624Z,51.50
2018-07-23T17:51:39.435Z,51.60
2018-07-23T17:54:08.570Z,52.30
2018-07-23T17:56:37.887Z,52.90
2018-07-23T17:59:06.564Z,51.90
2018-07-23T18:01:35.917Z,52.40
2018-07-23T18:06:32.889Z,52.50
2018-07-23T18:09:01.731Z,53.00
2018-07-23T18:11:30.419Z,53.70
2018-07-23T18:13:59.206Z,53.40
2018-07-23T18:16:28.652Z,54.20
2018-07-23T18:18:57.359Z,53.00
2018-07-23T18:21:26.897Z,52.70
2018-07-23T18:23:56.202Z,53.10
2018-07-23T18:26:25.055Z,53.00
2018-07-23T18:28:54.030Z,53.00
2018-07-23T18:31:22.648Z,53.50
2018-07-23T18:33:52.035Z,53.40
2018-07-23T18:36:20.787Z,53.60
2018-07-23T18:38:50.464Z,54.10
2018-07-23T18:41:20.167Z,54.00
2018-07-23T18:43:49.671Z,53.90
2018-07-23T18:46:18.335Z,54.30
2018-07-23T18:49:33.557Z,54.20
2018-07-23T18:52:02.184Z,54.40
2018-07-23T18:59:30.794Z,54.10
2018-07-23T19:02:00.030Z,54.60
2018-07-23T19:04:29.854Z,55.30
2018-07-23T19:06:58.919Z,56.00
2018-07-23T19:09:28.215Z,56.70
2018-07-23T19:11:57.777Z,56.90
2018-07-23T19:14:26.744Z,57.20
2018-07-23T19:16:56.697Z,57.30
2018-07-23T19:19:26.892Z,57.30
2018-07-23T19:21:55.598Z,57.60
2018-07-23T19:24:24.308Z,57.30
2018-07-23T19:26:53.242Z,57.60
2018-07-23T19:29:22.195Z,57.90
2018-07-23T19:31:52.020Z,58.20
2018-07-23T19:34:20.816Z,58.50
2018-07-23T19:36:50.280Z,58.90
2018-07-23T19:39:20.097Z,59.10
2018-07-23T19:41:49.186Z,59.20
2018-07-23T19:44:18.736Z,59.20
2018-07-23T19:46:47.861Z,59.00
2018-07-23T19:49:17.019Z,59.10
2018-07-23T19:51:45.675Z,59.40
2018-07-23T19:54:14.315Z,59.60
2018-07-23T19:56:43.019Z,59.50
2018-07-23T19:59:11.996Z,59.70
2018-07-23T20:01:40.788Z,59.70
2018-07-23T20:04:09.855Z,59.70
2018-07-23T20:06:38.460Z,59.90
2018-07-23T20:09:09.254Z,59.90
2018-07-23T20:11:38.524Z,59.30
2018-07-23T20:14:07.645Z,59.60
2018-07-23T20:16:36.256Z,59.90
2018-07-23T20:19:05.355Z,59.90
2018-07-23T20:21:34.040Z,59.90
2018-07-23T20:24:03.055Z,60.20
2018-07-23T20:26:32.002Z,60.40
2018-07-23T20:29:01.630Z,60.40
2018-07-23T20:31:31.140Z,60.20
2018-07-23T20:36:28.429Z,60.10
2018-07-23T20:38:57.525Z,59.90
2018-07-23T20:41:26.092Z,60.20
2018-07-23T20:43:55.787Z,60.70
2018-07-23T20:48:53.092Z,61.50
2018-07-23T20:51:22.158Z,61.00
2018-07-23T20:56:19.339Z,61.40
2018-07-23T20:58:48.211Z,61.20
2018-07-23T21:03:45.946Z,61.60
2018-07-23T21:06:15.826Z,61.50
2018-07-23T21:08:46.014Z,61.60
2018-07-23T21:11:14.584Z,62.50
2018-07-23T21:13:43.519Z,63.60
2018-07-23T21:16:12.131Z,63.20
2018-07-23T21:18:40.746Z,63.20
2018-07-23T21:21:09.771Z,63.30
2018-07-23T21:26:07.492Z,63.10
2018-07-23T21:28:36.475Z,63.20
2018-07-23T21:31:06.140Z,63.40
2018-07-23T21:33:35.060Z,63.70
2018-07-23T21:36:04.159Z,63.60
2018-07-23T21:38:32.922Z,63.50
2018-07-23T21:41:01.507Z,63.50
2018-07-23T21:43:30.022Z,63.40
2018-07-23T21:45:59.023Z,63.30
2018-07-23T21:48:28.109Z,63.20
2018-07-23T21:53:24.973Z,63.30
2018-07-23T21:55:53.988Z,63.20
2018-07-23T21:58:22.581Z,63.30
2018-07-23T22:00:51.219Z,63.00
2018-07-23T22:03:20.545Z,63.30
2018-07-23T22:05:49.536Z,63.50
2018-07-23T22:08:18.860Z,63.70
2018-07-23T22:10:48.239Z,63.90
2018-07-23T22:13:18.346Z,64.30
2018-07-23T22:15:47.035Z,64.50
2018-07-23T22:18:15.687Z,64.80
2018-07-23T22:20:45.102Z,64.80
2018-07-23T22:23:15.169Z,64.40
2018-07-23T22:25:45.034Z,64.30
2018-07-23T22:28:13.777Z,64.10
2018-07-23T22:30:42.972Z,64.40
2018-07-23T22:33:13.355Z,64.60
2018-07-23T22:35:42.299Z,65.10
2018-07-23T22:38:10.951Z,65.10
2018-07-23T22:40:39.671Z,65.20
2018-07-23T22:43:08.759Z,65.20
2018-07-23T22:45:37.703Z,65.30
2018-07-23T22:48:07.014Z,65.70
2018-07-23T22:50:35.620Z,65.60
2018-07-23T22:53:04.183Z,65.70
2018-07-23T22:55:33.347Z,65.60
2018-07-23T22:58:02.423Z,65.70
2018-07-23T23:00:31.402Z,65.60
2018-07-23T23:03:00.093Z,65.70
2018-07-23T23:05:29.303Z,66.00
2018-07-23T23:07:59.047Z,66.10
2018-07-23T23:10:27.850Z,66.30
2018-07-23T23:12:56.971Z,66.20
2018-07-23T23:15:27.320Z,66.30
2018-07-23T23:17:56.664Z,66.40
2018-07-23T23:20:25.718Z,66.60
2018-07-23T23:22:54.309Z,67.00
2018-07-23T23:25:22.978Z,67.10
2018-07-23T23:27:52.174Z,67.10
2018-07-23T23:30:21.141Z,66.60
2018-07-23T23:32:50.000Z,66.70
2018-07-23T23:35:19.007Z,67.00
2018-07-23T23:37:47.544Z,67.10
2018-07-23T23:40:16.845Z,66.70
2018-07-23T23:42:45.508Z,66.90
2018-07-23T23:45:14.935Z,67.00
2018-07-23T23:47:44.023Z,66.60
2018-07-23T23:50:13.231Z,66.40
2018-07-23T23:52:42.311Z,66.50
2018-07-23T23:55:10.874Z,66.60
2018-07-23T23:57:39.831Z,66.80
